sensor_id;sensor_type;location;lat;lon;timestamp;temperature;humidity
3794;DHT22;1912;51.358;12.282;2023-04-06T03:45:20;2.40;1.00
3794;DHT22;1912;51.358;12.282;2023-04-06T03:47:46;2.40;1.00
3794;DHT22;1912;51.358;12.282;2023-04-06T03:50:12;2.30;1.00
3794;DHT22;1912;51.358;12.282;2023-04-06T03:52:37;2.30;1.00
3794;DHT22;1912;51.358;12.282;2023-04-06T03:55:03;2.30;1.00
3794;DHT22;1912;51.358;12.282;2023-04-06T03:57:29;2.20;1.00
3794;DHT22;1912;51.358;12.282;2023-04-06T03:59:55;2.20;1.00
3794;DHT22;1912;51.358;12.282;2023-04-06T04:02:21;2.10;1.00
3794;DHT22;1912;51.358;12.282;2023-04-06T04:04:46;2.20;1.00
3794;DHT22;1912;51.358;12.282;2023-04-06T04:07:12;2.10;1.00
3794;DHT22;1912;51.358;12.282;2023-04-06T04:09:37;2.10;1.00
3794;DHT22;1912;51.358;12.282;2023-04-06T04:12:03;2.10;1.00
3794;DHT22;1912;51.358;12.282;2023-04-06T04:14:29;2.10;1.00
3794;DHT22;1912;51.358;12.282;2023-04-06T04:16:55;2.10;1.00
3794;DHT22;1912;51.358;12.282;2023-04-06T04:19:20;2.10;1.00
3794;DHT22;1912;51.358;12.282;2023-04-06T04:21:46;2.10;1.00
3794;DHT22;1912;51.358;12.282;2023-04-06T04:24:12;2.10;1.00
3794;DHT22;1912;51.358;12.282;2023-04-06T04:26:39;2.10;1.00
3794;DHT22;1912;51.358;12.282;2023-04-06T04:29:05;2.00;1.00
3794;DHT22;1912;51.358;12.282;2023-04-06T04:31:31;2.00;1.00
3794;DHT22;1912;51.358;12.282;2023-04-06T04:33:59;2.00;1.00
3794;DHT22;1912;51.358;12.282;2023-04-06T04:36:25;2.00;1.00
3794;DHT22;1912;51.358;12.282;2023-04-06T04:38:51;2.00;1.00
3794;DHT22;1912;51.358;12.282;2023-04-06T04:41:20;2.00;1.00
3794;DHT22;1912;51.358;12.282;2023-04-06T04:43:45;2.00;1.00
3794;DHT22;1912;51.358;12.282;2023-04-06T04:46:11;2.00;1.00
3794;DHT22;1912;51.358;12.282;2023-04-06T04:48:37;2.00;1.00
3794;DHT22;1912;51.358;12.282;2023-04-06T04:51:04;2.00;1.00
3794;DHT22;1912;51.358;12.282;2023-04-06T04:53:30;2.00;1.00
3794;DHT22;1912;51.358;12.282;2023-04-06T04:55:56;2.00;1.00
3794;DHT22;1912;51.358;12.282;2023-04-06T04:58:22;2.00;1.00
3794;DHT22;1912;51.358;12.282;2023-04-06T05:00:47;1.90;1.00
3794;DHT22;1912;51.358;12.282;2023-04-06T05:03:18;1.90;1.00
3794;DHT22;1912;51.358;12.282;2023-04-06T05:05:49;2.00;1.00
3794;DHT22;1912;51.358;12.282;2023-04-06T05:08:15;1.90;1.00
3794;DHT22;1912;51.358;12.282;2023-04-06T05:10:41;1.90;1.00
3794;DHT22;1912;51.358;12.282;2023-04-06T05:13:07;2.00;1.00
3794;DHT22;1912;51.358;12.282;2023-04-06T05:15:33;2.00;1.00
3794;DHT22;1912;51.358;12.282;2023-04-06T05:18:00;2.00;1.00
3794;DHT22;1912;51.358;12.282;2023-04-06T05:20:26;2.00;1.00
3794;DHT22;1912;51.358;12.282;2023-04-06T05:22:53;2.00;1.00
3794;DHT22;1912;51.358;12.282;2023-04-06T05:25:19;2.10;1.00
3794;DHT22;1912;51.358;12.282;2023-04-06T05:27:45;2.10;1.00
3794;DHT22;1912;51.358;12.282;2023-04-06T05:30:11;2.10;1.00
3794;DHT22;1912;51.358;12.282;2023-04-06T05:32:36;2.10;1.00
3794;DHT22;1912;51.358;12.282;2023-04-06T05:35:02;2.20;1.00
3794;DHT22;1912;51.358;12.282;2023-04-06T05:37:28;2.20;1.00
3794;DHT22;1912;51.358;12.282;2023-04-06T05:39:53;2.30;1.00
3794;DHT22;1912;51.358;12.282;2023-04-06T05:42:19;2.30;1.00
3794;DHT22;1912;51.358;12.282;2023-04-06T05:44:45;2.30;1.00
3794;DHT22;1912;51.358;12.282;2023-04-06T05:47:10;2.30;1.00
3794;DHT22;1912;51.358;12.282;2023-04-06T05:49:36;2.40;1.00
3794;DHT22;1912;51.358;12.282;2023-04-06T05:52:02;2.50;1.00
3794;DHT22;1912;51.358;12.282;2023-04-06T05:54:27;2.60;1.00
3794;DHT22;1912;51.358;12.282;2023-04-06T05:56:53;2.70;1.00
3794;DHT22;1912;51.358;12.282;2023-04-06T05:59:19;2.80;1.00
3794;DHT22;1912;51.358;12.282;2023-04-06T06:01:45;3.00;1.00
3794;DHT22;1912;51.358;12.282;2023-04-06T06:04:11;3.30;1.00
3794;DHT22;1912;51.358;12.282;2023-04-06T06:06:37;3.60;1.00
3794;DHT22;1912;51.358;12.282;2023-04-06T06:09:02;3.80;1.00
3794;DHT22;1912;51.358;12.282;2023-04-06T06:11:29;3.90;1.00
3794;DHT22;1912;51.358;12.282;2023-04-06T06:13:55;4.00;1.00
3794;DHT22;1912;51.358;12.282;2023-04-06T06:16:21;4.10;1.00
3794;DHT22;1912;51.358;12.282;2023-04-06T06:18:47;4.10;1.00
3794;DHT22;1912;51.358;12.282;2023-04-06T06:21:13;4.20;1.00
3794;DHT22;1912;51.358;12.282;2023-04-06T06:23:39;4.20;1.00
3794;DHT22;1912;51.358;12.282;2023-04-06T06:26:04;4.30;1.00
3794;DHT22;1912;51.358;12.282;2023-04-06T06:28:30;4.40;1.00
3794;DHT22;1912;51.358;12.282;2023-04-06T06:30:57;4.60;1.00
3794;DHT22;1912;51.358;12.282;2023-04-06T06:33:23;4.70;1.00
3794;DHT22;1912;51.358;12.282;2023-04-06T06:35:50;4.60;1.00
3794;DHT22;1912;51.358;12.282;2023-04-06T06:38:16;4.80;1.00
3794;DHT22;1912;51.358;12.282;2023-04-06T06:40:42;5.10;1.00
3794;DHT22;1912;51.358;12.282;2023-04-06T06:43:08;5.10;1.00
3794;DHT22;1912;51.358;12.282;2023-04-06T06:45:34;5.30;1.00
3794;DHT22;1912;51.358;12.282;2023-04-06T06:47:59;5.50;1.00
3794;DHT22;1912;51.358;12.282;2023-04-06T06:50:25;5.70;1.00
3794;DHT22;1912;51.358;12.282;2023-04-06T06:52:51;5.80;1.00
3794;DHT22;1912;51.358;12.282;2023-04-06T06:55:16;5.90;1.00
3794;DHT22;1912;51.358;12.282;2023-04-06T06:57:44;6.10;1.00
3794;DHT22;1912;51.358;12.282;2023-04-06T07:00:12;6.40;1.00
3794;DHT22;1912;51.358;12.282;2023-04-06T07:02:39;6.70;1.00
3794;DHT22;1912;51.358;12.282;2023-04-06T07:05:05;6.80;1.00
3794;DHT22;1912;51.358;12.282;2023-04-06T07:07:34;7.10;1.00
3794;DHT22;1912;51.358;12.282;2023-04-06T07:10:00;7.10;1.00
3794;DHT22;1912;51.358;12.282;2023-04-06T07:12:26;7.40;1.00
3794;DHT22;1912;51.358;12.282;2023-04-06T07:14:52;7.20;1.00
3794;DHT22;1912;51.358;12.282;2023-04-06T07:17:18;7.00;1.00
3794;DHT22;1912;51.358;12.282;2023-04-06T07:19:43;7.00;1.00
3794;DHT22;1912;51.358;12.282;2023-04-06T07:22:10;6.60;1.00
3794;DHT22;1912;51.358;12.282;2023-04-06T07:24:35;6.60;1.00
3794;DHT22;1912;51.358;12.282;2023-04-06T07:27:01;6.60;1.00
3794;DHT22;1912;51.358;12.282;2023-04-06T07:29:27;7.00;1.00
3794;DHT22;1912;51.358;12.282;2023-04-06T07:31:53;7.50;1.00
3794;DHT22;1912;51.358;12.282;2023-04-06T07:34:19;7.70;1.00
3794;DHT22;1912;51.358;12.282;2023-04-06T07:36:45;7.70;1.00
3794;DHT22;1912;51.358;12.282;2023-04-06T07:39:11;7.60;1.00
3794;DHT22;1912;51.358;12.282;2023-04-06T07:41:36;7.50;1.00
3794;DHT22;1912;51.358;12.282;2023-04-06T07:44:03;7.80;1.00
3794;DHT22;1912;51.358;12.282;2023-04-06T07:46:29;7.90;1.00
3794;DHT22;1912;51.358;12.282;2023-04-06T07:48:56;8.20;1.00
3794;DHT22;1912;51.358;12.282;2023-04-06T07:51:23;8.50;1.00
3794;DHT22;1912;51.358;12.282;2023-04-06T07:53:50;8.20;1.00
3794;DHT22;1912;51.358;12.282;2023-04-06T07:56:16;8.10;1.00
3794;DHT22;1912;51.358;12.282;2023-04-06T07:58:41;8.60;1.00
3794;DHT22;1912;51.358;12.282;2023-04-06T08:01:07;8.70;1.00
3794;DHT22;1912;51.358;12.282;2023-04-06T08:03:36;9.00;1.00
3794;DHT22;1912;51.358;12.282;2023-04-06T08:06:02;9.40;1.00
3794;DHT22;1912;51.358;12.282;2023-04-06T08:08:28;9.70;1.00
3794;DHT22;1912;51.358;12.282;2023-04-06T08:10:54;9.60;1.00
3794;DHT22;1912;51.358;12.282;2023-04-06T08:13:20;9.40;1.00
3794;DHT22;1912;51.358;12.282;2023-04-06T08:15:46;9.80;1.00
3794;DHT22;1912;51.358;12.282;2023-04-06T08:18:11;9.70;1.00
3794;DHT22;1912;51.358;12.282;2023-04-06T08:20:37;10.00;1.00
3794;DHT22;1912;51.358;12.282;2023-04-06T08:23:03;10.50;1.00
3794;DHT22;1912;51.358;12.282;2023-04-06T08:25:29;10.70;1.00
3794;DHT22;1912;51.358;12.282;2023-04-06T08:27:55;10.80;1.00
3794;DHT22;1912;51.358;12.282;2023-04-06T08:30:21;10.80;1.00
3794;DHT22;1912;51.358;12.282;2023-04-06T08:32:47;10.90;1.00
3794;DHT22;1912;51.358;12.282;2023-04-06T08:35:12;11.20;1.00
3794;DHT22;1912;51.358;12.282;2023-04-06T08:37:38;11.40;1.00
3794;DHT22;1912;51.358;12.282;2023-04-06T08:40:05;11.50;1.00
3794;DHT22;1912;51.358;12.282;2023-04-06T08:42:32;11.60;1.00
3794;DHT22;1912;51.358;12.282;2023-04-06T08:44:59;12.00;1.00
3794;DHT22;1912;51.358;12.282;2023-04-06T08:47:25;12.30;1.00
3794;DHT22;1912;51.358;12.282;2023-04-06T08:49:52;12.60;1.00
3794;DHT22;1912;51.358;12.282;2023-04-06T08:52:19;12.70;1.00
3794;DHT22;1912;51.358;12.282;2023-04-06T08:54:45;12.70;1.00
3794;DHT22;1912;51.358;12.282;2023-04-06T08:57:11;12.30;1.00
3794;DHT22;1912;51.358;12.282;2023-04-06T08:59:38;12.30;1.00
3794;DHT22;1912;51.358;12.282;2023-04-06T09:02:04;12.70;1.00
3794;DHT22;1912;51.358;12.282;2023-04-06T09:04:32;12.70;1.00
3794;DHT22;1912;51.358;12.282;2023-04-06T09:06:59;13.10;1.00
3794;DHT22;1912;51.358;12.282;2023-04-06T09:09:25;13.30;1.00
3794;DHT22;1912;51.358;12.282;2023-04-06T09:11:51;13.70;1.00
3794;DHT22;1912;51.358;12.282;2023-04-06T09:14:33;13.50;1.00
3794;DHT22;1912;51.358;12.282;2023-04-06T09:17:00;13.10;1.00
3794;DHT22;1912;51.358;12.282;2023-04-06T09:19:26;13.10;1.00
3794;DHT22;1912;51.358;12.282;2023-04-06T09:22:04;13.90;1.00
3794;DHT22;1912;51.358;12.282;2023-04-06T09:24:50;13.80;1.00
3794;DHT22;1912;51.358;12.282;2023-04-06T09:28:01;13.10;1.00
3794;DHT22;1912;51.358;12.282;2023-04-06T09:30:29;13.70;1.00
3794;DHT22;1912;51.358;12.282;2023-04-06T09:32:56;14.30;1.00
3794;DHT22;1912;51.358;12.282;2023-04-06T09:35:23;13.60;1.00
3794;DHT22;1912;51.358;12.282;2023-04-06T09:37:50;13.40;1.00
3794;DHT22;1912;51.358;12.282;2023-04-06T09:40:17;13.40;1.00
3794;DHT22;1912;51.358;12.282;2023-04-06T09:42:47;14.00;1.00
3794;DHT22;1912;51.358;12.282;2023-04-06T09:45:15;13.80;1.00
3794;DHT22;1912;51.358;12.282;2023-04-06T09:47:45;13.40;1.00
3794;DHT22;1912;51.358;12.282;2023-04-06T09:50:12;13.80;1.00
3794;DHT22;1912;51.358;12.282;2023-04-06T09:52:49;13.40;1.00
3794;DHT22;1912;51.358;12.282;2023-04-06T09:55:40;13.20;1.00
3794;DHT22;1912;51.358;12.282;2023-04-06T09:58:10;13.20;1.00
3794;DHT22;1912;51.358;12.282;2023-04-06T10:00:48;13.70;1.00
3794;DHT22;1912;51.358;12.282;2023-04-06T10:03:28;15.10;1.00
3794;DHT22;1912;51.358;12.282;2023-04-06T10:05:56;16.10;1.00
3794;DHT22;1912;51.358;12.282;2023-04-06T10:08:30;16.60;1.00
3794;DHT22;1912;51.358;12.282;2023-04-06T10:10:58;15.60;1.00
3794;DHT22;1912;51.358;12.282;2023-04-06T10:13:24;15.40;1.00
3794;DHT22;1912;51.358;12.282;2023-04-06T10:15:51;15.20;1.00
3794;DHT22;1912;51.358;12.282;2023-04-06T10:18:17;15.80;1.00
3794;DHT22;1912;51.358;12.282;2023-04-06T10:21:04;15.50;1.00
3794;DHT22;1912;51.358;12.282;2023-04-06T10:23:36;15.50;1.00
3794;DHT22;1912;51.358;12.282;2023-04-06T10:26:05;15.10;1.00
3794;DHT22;1912;51.358;12.282;2023-04-06T10:28:41;15.40;1.00
3794;DHT22;1912;51.358;12.282;2023-04-06T10:31:07;15.80;1.00
3794;DHT22;1912;51.358;12.282;2023-04-06T10:33:33;16.10;1.00
3794;DHT22;1912;51.358;12.282;2023-04-06T10:36:22;16.50;1.00
3794;DHT22;1912;51.358;12.282;2023-04-06T10:38:54;16.40;1.00
3794;DHT22;1912;51.358;12.282;2023-04-06T10:41:22;16.60;1.00
3794;DHT22;1912;51.358;12.282;2023-04-06T10:43:56;16.20;1.00
3794;DHT22;1912;51.358;12.282;2023-04-06T10:46:26;16.20;1.00
3794;DHT22;1912;51.358;12.282;2023-04-06T10:48:52;16.10;1.00
3794;DHT22;1912;51.358;12.282;2023-04-06T10:51:18;15.70;1.00
3794;DHT22;1912;51.358;12.282;2023-04-06T10:53:46;14.40;1.00
3794;DHT22;1912;51.358;12.282;2023-04-06T10:56:15;14.20;1.00
3794;DHT22;1912;51.358;12.282;2023-04-06T10:58:50;15.30;1.00
3794;DHT22;1912;51.358;12.282;2023-04-06T11:01:19;16.20;1.00
3794;DHT22;1912;51.358;12.282;2023-04-06T11:03:47;16.80;1.00
3794;DHT22;1912;51.358;12.282;2023-04-06T11:06:22;16.30;1.00
3794;DHT22;1912;51.358;12.282;2023-04-06T11:08:50;16.30;1.00
3794;DHT22;1912;51.358;12.282;2023-04-06T11:11:18;17.10;1.00
3794;DHT22;1912;51.358;12.282;2023-04-06T11:13:56;17.60;1.00
3794;DHT22;1912;51.358;12.282;2023-04-06T11:16:29;17.30;1.00
3794;DHT22;1912;51.358;12.282;2023-04-06T11:19:00;17.30;1.00
3794;DHT22;1912;51.358;12.282;2023-04-06T11:21:40;16.80;1.00
3794;DHT22;1912;51.358;12.282;2023-04-06T11:24:13;16.10;1.00
3794;DHT22;1912;51.358;12.282;2023-04-06T11:29:18;16.10;1.00
3794;DHT22;1912;51.358;12.282;2023-04-06T11:31:50;16.50;1.00
3794;DHT22;1912;51.358;12.282;2023-04-06T11:34:19;16.50;1.00
3794;DHT22;1912;51.358;12.282;2023-04-06T11:36:54;17.40;1.00
3794;DHT22;1912;51.358;12.282;2023-04-06T11:39:23;18.10;1.00
3794;DHT22;1912;51.358;12.282;2023-04-06T11:41:51;15.60;1.00
3794;DHT22;1912;51.358;12.282;2023-04-06T11:44:33;15.90;1.00
3794;DHT22;1912;51.358;12.282;2023-04-06T11:47:09;16.80;1.00
3794;DHT22;1912;51.358;12.282;2023-04-06T11:49:40;17.50;1.00
3794;DHT22;1912;51.358;12.282;2023-04-06T11:52:27;17.30;1.00
3794;DHT22;1912;51.358;12.282;2023-04-06T11:54:53;17.40;1.00
3794;DHT22;1912;51.358;12.282;2023-04-06T11:57:22;17.60;1.00
3794;DHT22;1912;51.358;12.282;2023-04-06T11:59:51;18.10;1.00
3794;DHT22;1912;51.358;12.282;2023-04-06T12:02:17;17.70;1.00
3794;DHT22;1912;51.358;12.282;2023-04-06T12:04:44;17.90;1.00
3794;DHT22;1912;51.358;12.282;2023-04-06T12:07:10;18.20;1.00
3794;DHT22;1912;51.358;12.282;2023-04-06T12:09:35;18.70;1.00
3794;DHT22;1912;51.358;12.282;2023-04-06T12:12:02;19.10;1.00
3794;DHT22;1912;51.358;12.282;2023-04-06T12:14:29;19.40;1.00
3794;DHT22;1912;51.358;12.282;2023-04-06T12:16:59;17.50;1.00
3794;DHT22;1912;51.358;12.282;2023-04-06T12:19:25;17.60;1.00
3794;DHT22;1912;51.358;12.282;2023-04-06T12:21:52;17.50;1.00
3794;DHT22;1912;51.358;12.282;2023-04-06T12:24:18;17.00;1.00
3794;DHT22;1912;51.358;12.282;2023-04-06T12:26:44;17.30;1.00
3794;DHT22;1912;51.358;12.282;2023-04-06T12:29:10;17.30;1.00
3794;DHT22;1912;51.358;12.282;2023-04-06T12:31:38;18.30;1.00
3794;DHT22;1912;51.358;12.282;2023-04-06T12:34:06;18.70;1.00
3794;DHT22;1912;51.358;12.282;2023-04-06T12:36:32;18.80;1.00
3794;DHT22;1912;51.358;12.282;2023-04-06T12:38:59;17.80;1.00
3794;DHT22;1912;51.358;12.282;2023-04-06T12:41:25;17.90;1.00
3794;DHT22;1912;51.358;12.282;2023-04-06T12:43:52;18.30;1.00
3794;DHT22;1912;51.358;12.282;2023-04-06T12:46:18;18.10;1.00
3794;DHT22;1912;51.358;12.282;2023-04-06T12:48:44;19.00;1.00
3794;DHT22;1912;51.358;12.282;2023-04-06T12:51:09;19.20;1.00
3794;DHT22;1912;51.358;12.282;2023-04-06T12:53:36;18.70;1.00
3794;DHT22;1912;51.358;12.282;2023-04-06T12:56:02;18.30;1.00
3794;DHT22;1912;51.358;12.282;2023-04-06T12:58:37;17.90;1.00
3794;DHT22;1912;51.358;12.282;2023-04-06T13:01:06;17.70;1.00
3794;DHT22;1912;51.358;12.282;2023-04-06T13:03:32;18.50;1.00
3794;DHT22;1912;51.358;12.282;2023-04-06T13:05:59;19.00;1.00
3794;DHT22;1912;51.358;12.282;2023-04-06T13:08:25;18.80;1.00
3794;DHT22;1912;51.358;12.282;2023-04-06T13:10:52;16.90;1.00
3794;DHT22;1912;51.358;12.282;2023-04-06T13:13:23;16.60;1.00
3794;DHT22;1912;51.358;12.282;2023-04-06T13:15:50;16.70;1.00
3794;DHT22;1912;51.358;12.282;2023-04-06T13:18:17;16.30;1.00
3794;DHT22;1912;51.358;12.282;2023-04-06T13:20:42;16.50;1.00
3794;DHT22;1912;51.358;12.282;2023-04-06T13:23:08;16.30;1.00
3794;DHT22;1912;51.358;12.282;2023-04-06T13:25:35;17.40;1.00
3794;DHT22;1912;51.358;12.282;2023-04-06T13:28:00;17.90;1.00
3794;DHT22;1912;51.358;12.282;2023-04-06T13:30:26;16.50;1.00
3794;DHT22;1912;51.358;12.282;2023-04-06T13:32:52;16.60;1.00
3794;DHT22;1912;51.358;12.282;2023-04-06T13:35:18;17.30;1.00
3794;DHT22;1912;51.358;12.282;2023-04-06T13:37:44;17.40;1.00
3794;DHT22;1912;51.358;12.282;2023-04-06T13:40:10;17.20;1.00
3794;DHT22;1912;51.358;12.282;2023-04-06T13:42:36;17.90;1.00
3794;DHT22;1912;51.358;12.282;2023-04-06T13:45:03;18.00;1.00
3794;DHT22;1912;51.358;12.282;2023-04-06T13:47:29;17.80;1.00
3794;DHT22;1912;51.358;12.282;2023-04-06T13:49:55;18.00;1.00
3794;DHT22;1912;51.358;12.282;2023-04-06T13:52:21;16.80;1.00
3794;DHT22;1912;51.358;12.282;2023-04-06T13:54:48;16.60;1.00
3794;DHT22;1912;51.358;12.282;2023-04-06T13:57:14;16.50;1.00
3794;DHT22;1912;51.358;12.282;2023-04-06T13:59:40;16.80;1.00
3794;DHT22;1912;51.358;12.282;2023-04-06T14:02:07;17.00;1.00
3794;DHT22;1912;51.358;12.282;2023-04-06T14:04:34;17.70;1.00
3794;DHT22;1912;51.358;12.282;2023-04-06T14:07:01;17.60;1.00
3794;DHT22;1912;51.358;12.282;2023-04-06T14:09:28;17.60;1.00
3794;DHT22;1912;51.358;12.282;2023-04-06T14:11:54;17.80;1.00
3794;DHT22;1912;51.358;12.282;2023-04-06T14:14:21;18.20;1.00
3794;DHT22;1912;51.358;12.282;2023-04-06T14:16:49;18.50;1.00
3794;DHT22;1912;51.358;12.282;2023-04-06T14:19:17;17.60;1.00
3794;DHT22;1912;51.358;12.282;2023-04-06T14:21:46;17.20;1.00
3794;DHT22;1912;51.358;12.282;2023-04-06T14:24:14;17.40;1.00
3794;DHT22;1912;51.358;12.282;2023-04-06T14:26:40;17.90;1.00
3794;DHT22;1912;51.358;12.282;2023-04-06T14:29:09;17.90;1.00
3794;DHT22;1912;51.358;12.282;2023-04-06T14:31:35;18.30;1.00
3794;DHT22;1912;51.358;12.282;2023-04-06T14:34:03;17.90;1.00
3794;DHT22;1912;51.358;12.282;2023-04-06T14:36:31;18.40;1.00
3794;DHT22;1912;51.358;12.282;2023-04-06T14:39:05;18.60;1.00
3794;DHT22;1912;51.358;12.282;2023-04-06T14:41:32;18.60;1.00
3794;DHT22;1912;51.358;12.282;2023-04-06T14:43:59;18.60;1.00
3794;DHT22;1912;51.358;12.282;2023-04-06T14:46:25;17.90;1.00
3794;DHT22;1912;51.358;12.282;2023-04-06T14:48:54;17.00;1.00
3794;DHT22;1912;51.358;12.282;2023-04-06T14:51:21;16.50;1.00
3794;DHT22;1912;51.358;12.282;2023-04-06T14:53:47;17.00;1.00
3794;DHT22;1912;51.358;12.282;2023-04-06T14:56:13;17.20;1.00
3794;DHT22;1912;51.358;12.282;2023-04-06T14:58:38;17.20;1.00
3794;DHT22;1912;51.358;12.282;2023-04-06T15:01:04;16.70;1.00
3794;DHT22;1912;51.358;12.282;2023-04-06T15:03:31;16.30;1.00
3794;DHT22;1912;51.358;12.282;2023-04-06T15:05:57;16.00;1.00
3794;DHT22;1912;51.358;12.282;2023-04-06T15:08:23;15.80;1.00
3794;DHT22;1912;51.358;12.282;2023-04-06T15:10:52;15.70;1.00
3794;DHT22;1912;51.358;12.282;2023-04-06T15:13:19;15.30;1.00
3794;DHT22;1912;51.358;12.282;2023-04-06T15:15:45;15.10;1.00
3794;DHT22;1912;51.358;12.282;2023-04-06T15:18:12;15.60;1.00
3794;DHT22;1912;51.358;12.282;2023-04-06T15:20:37;16.40;1.00
3794;DHT22;1912;51.358;12.282;2023-04-06T15:23:03;16.60;1.00
3794;DHT22;1912;51.358;12.282;2023-04-06T15:25:30;17.00;1.00
3794;DHT22;1912;51.358;12.282;2023-04-06T15:27:56;16.70;1.00
3794;DHT22;1912;51.358;12.282;2023-04-06T15:30:22;16.30;1.00
3794;DHT22;1912;51.358;12.282;2023-04-06T15:32:59;16.20;1.00
3794;DHT22;1912;51.358;12.282;2023-04-06T15:35:31;16.70;1.00
3794;DHT22;1912;51.358;12.282;2023-04-06T15:37:57;16.50;1.00
3794;DHT22;1912;51.358;12.282;2023-04-06T15:40:23;16.40;1.00
3794;DHT22;1912;51.358;12.282;2023-04-06T15:42:49;16.10;1.00
3794;DHT22;1912;51.358;12.282;2023-04-06T15:45:15;16.00;1.00
3794;DHT22;1912;51.358;12.282;2023-04-06T15:47:42;15.80;1.00
3794;DHT22;1912;51.358;12.282;2023-04-06T15:50:10;15.10;1.00
3794;DHT22;1912;51.358;12.282;2023-04-06T15:52:37;14.60;1.00
3794;DHT22;1912;51.358;12.282;2023-04-06T15:55:05;14.20;1.00
3794;DHT22;1912;51.358;12.282;2023-04-06T15:57:32;14.00;1.00
3794;DHT22;1912;51.358;12.282;2023-04-06T15:59:58;14.60;1.00
3794;DHT22;1912;51.358;12.282;2023-04-06T16:02:24;15.20;1.00
3794;DHT22;1912;51.358;12.282;2023-04-06T16:04:59;15.40;1.00
3794;DHT22;1912;51.358;12.282;2023-04-06T16:07:29;15.80;1.00
3794;DHT22;1912;51.358;12.282;2023-04-06T16:09:56;15.70;1.00
3794;DHT22;1912;51.358;12.282;2023-04-06T16:12:22;16.20;1.00
3794;DHT22;1912;51.358;12.282;2023-04-06T16:14:48;16.10;1.00
3794;DHT22;1912;51.358;12.282;2023-04-06T16:17:13;15.90;1.00
3794;DHT22;1912;51.358;12.282;2023-04-06T16:19:40;15.80;1.00
3794;DHT22;1912;51.358;12.282;2023-04-06T16:22:06;16.00;1.00
3794;DHT22;1912;51.358;12.282;2023-04-06T16:24:32;15.50;1.00
3794;DHT22;1912;51.358;12.282;2023-04-06T16:26:57;15.30;1.00
3794;DHT22;1912;51.358;12.282;2023-04-06T16:29:25;15.70;1.00
3794;DHT22;1912;51.358;12.282;2023-04-06T16:31:52;15.50;1.00
3794;DHT22;1912;51.358;12.282;2023-04-06T16:34:18;15.50;1.00
3794;DHT22;1912;51.358;12.282;2023-04-06T16:36:44;15.50;1.00
3794;DHT22;1912;51.358;12.282;2023-04-06T16:39:10;15.70;1.00
3794;DHT22;1912;51.358;12.282;2023-04-06T16:41:37;15.20;1.00
3794;DHT22;1912;51.358;12.282;2023-04-06T16:44:03;14.70;1.00
3794;DHT22;1912;51.358;12.282;2023-04-06T16:46:30;14.40;1.00
3794;DHT22;1912;51.358;12.282;2023-04-06T16:49:00;14.80;1.00
3794;DHT22;1912;51.358;12.282;2023-04-06T16:51:28;15.50;1.00
3794;DHT22;1912;51.358;12.282;2023-04-06T16:53:54;15.60;1.00
3794;DHT22;1912;51.358;12.282;2023-04-06T16:56:20;15.80;1.00
3794;DHT22;1912;51.358;12.282;2023-04-06T16:58:46;15.80;1.00
3794;DHT22;1912;51.358;12.282;2023-04-06T17:01:19;16.30;1.00
3794;DHT22;1912;51.358;12.282;2023-04-06T17:03:50;16.50;1.00
3794;DHT22;1912;51.358;12.282;2023-04-06T17:06:16;16.20;1.00
3794;DHT22;1912;51.358;12.282;2023-04-06T17:08:43;15.50;1.00
3794;DHT22;1912;51.358;12.282;2023-04-06T17:11:11;14.70;1.00
3794;DHT22;1912;51.358;12.282;2023-04-06T17:13:38;14.20;1.00
3794;DHT22;1912;51.358;12.282;2023-04-06T17:16:05;13.70;1.00
3794;DHT22;1912;51.358;12.282;2023-04-06T17:18:31;13.60;1.00
3794;DHT22;1912;51.358;12.282;2023-04-06T17:20:57;13.50;1.00
3794;DHT22;1912;51.358;12.282;2023-04-06T17:23:24;13.30;1.00
3794;DHT22;1912;51.358;12.282;2023-04-06T17:25:50;13.00;1.00
3794;DHT22;1912;51.358;12.282;2023-04-06T17:28:16;12.90;1.00
3794;DHT22;1912;51.358;12.282;2023-04-06T17:30:42;12.50;1.00
3794;DHT22;1912;51.358;12.282;2023-04-06T17:33:08;12.20;1.00
3794;DHT22;1912;51.358;12.282;2023-04-06T17:35:34;11.90;1.00
3794;DHT22;1912;51.358;12.282;2023-04-06T17:38:00;11.60;1.00
3794;DHT22;1912;51.358;12.282;2023-04-06T17:40:26;11.30;1.00
3794;DHT22;1912;51.358;12.282;2023-04-06T17:42:52;11.00;1.00
3794;DHT22;1912;51.358;12.282;2023-04-06T17:45:17;10.90;1.00
3794;DHT22;1912;51.358;12.282;2023-04-06T17:47:43;10.80;1.00
3794;DHT22;1912;51.358;12.282;2023-04-06T17:50:09;10.70;1.00
3794;DHT22;1912;51.358;12.282;2023-04-06T17:52:35;10.50;1.00
3794;DHT22;1912;51.358;12.282;2023-04-06T17:55:02;10.40;1.00
3794;DHT22;1912;51.358;12.282;2023-04-06T17:57:28;10.30;1.00
3794;DHT22;1912;51.358;12.282;2023-04-06T17:59:53;10.20;1.00
3794;DHT22;1912;51.358;12.282;2023-04-06T18:02:20;10.00;1.00
3794;DHT22;1912;51.358;12.282;2023-04-06T18:04:49;10.00;1.00
3794;DHT22;1912;51.358;12.282;2023-04-06T18:07:16;9.90;1.00
3794;DHT22;1912;51.358;12.282;2023-04-06T18:09:42;9.70;1.00
3794;DHT22;1912;51.358;12.282;2023-04-06T18:12:08;9.60;1.00
3794;DHT22;1912;51.358;12.282;2023-04-06T18:14:33;9.60;1.00
3794;DHT22;1912;51.358;12.282;2023-04-06T18:16:59;9.60;1.00
3794;DHT22;1912;51.358;12.282;2023-04-06T18:19:25;9.50;1.00
3794;DHT22;1912;51.358;12.282;2023-04-06T18:21:53;9.50;1.00
3794;DHT22;1912;51.358;12.282;2023-04-06T18:24:19;9.40;1.00
3794;DHT22;1912;51.358;12.282;2023-04-06T18:26:44;9.30;1.00
3794;DHT22;1912;51.358;12.282;2023-04-06T18:29:10;9.30;1.00
3794;DHT22;1912;51.358;12.282;2023-04-06T18:31:36;9.20;1.00
3794;DHT22;1912;51.358;12.282;2023-04-06T18:34:02;9.10;1.00
3794;DHT22;1912;51.358;12.282;2023-04-06T18:36:29;9.10;1.00
3794;DHT22;1912;51.358;12.282;2023-04-06T18:38:55;8.90;1.00
3794;DHT22;1912;51.358;12.282;2023-04-06T18:41:21;9.00;1.00
3794;DHT22;1912;51.358;12.282;2023-04-06T18:43:47;9.00;1.00
3794;DHT22;1912;51.358;12.282;2023-04-06T18:46:15;8.90;1.00
3794;DHT22;1912;51.358;12.282;2023-04-06T18:48:42;8.80;1.00
3794;DHT22;1912;51.358;12.282;2023-04-06T18:51:08;8.80;1.00
3794;DHT22;1912;51.358;12.282;2023-04-06T18:53:34;8.70;1.00
3794;DHT22;1912;51.358;12.282;2023-04-06T18:56:00;8.60;1.00
3794;DHT22;1912;51.358;12.282;2023-04-06T18:58:26;8.60;1.00
3794;DHT22;1912;51.358;12.282;2023-04-06T19:00:52;8.60;1.00
3794;DHT22;1912;51.358;12.282;2023-04-06T19:03:18;8.50;1.00
3794;DHT22;1912;51.358;12.282;2023-04-06T19:05:44;8.50;1.00
3794;DHT22;1912;51.358;12.282;2023-04-06T19:08:10;8.40;1.00
3794;DHT22;1912;51.358;12.282;2023-04-06T19:10:36;8.40;1.00
3794;DHT22;1912;51.358;12.282;2023-04-06T19:13:03;8.30;1.00
3794;DHT22;1912;51.358;12.282;2023-04-06T19:15:29;8.30;1.00
3794;DHT22;1912;51.358;12.282;2023-04-06T19:17:55;8.20;1.00
3794;DHT22;1912;51.358;12.282;2023-04-06T19:20:21;8.10;1.00
3794;DHT22;1912;51.358;12.282;2023-04-06T19:22:47;8.00;1.00
3794;DHT22;1912;51.358;12.282;2023-04-06T19:25:16;8.00;1.00
3794;DHT22;1912;51.358;12.282;2023-04-06T19:27:43;8.00;1.00
3794;DHT22;1912;51.358;12.282;2023-04-06T19:30:09;8.00;1.00
3794;DHT22;1912;51.358;12.282;2023-04-06T19:32:36;8.00;1.00
3794;DHT22;1912;51.358;12.282;2023-04-06T19:35:04;8.00;1.00
3794;DHT22;1912;51.358;12.282;2023-04-06T19:37:32;7.90;1.00
3794;DHT22;1912;51.358;12.282;2023-04-06T19:39:58;7.90;1.00
3794;DHT22;1912;51.358;12.282;2023-04-06T19:42:24;7.80;1.00
3794;DHT22;1912;51.358;12.282;2023-04-06T19:44:50;7.80;1.00
3794;DHT22;1912;51.358;12.282;2023-04-06T19:47:17;7.70;1.00
3794;DHT22;1912;51.358;12.282;2023-04-06T19:49:43;7.70;1.00
3794;DHT22;1912;51.358;12.282;2023-04-06T19:52:09;7.70;1.00
3794;DHT22;1912;51.358;12.282;2023-04-06T19:54:36;7.60;1.00